createdAt,value
2019-04-28T00:02:20.550Z,25.95
2019-04-28T00:04:51.532Z,22.48
2019-04-28T00:07:22.690Z,22.93
2019-04-28T00:09:53.634Z,20.45
2019-04-28T00:12:24.589Z,25.00
2019-04-28T00:14:55.567Z,22.07
2019-04-28T00:17:26.421Z,23.75
2019-04-28T00:19:59.015Z,18.98
2019-04-28T00:22:31.512Z,25.17
2019-04-28T00:25:13.208Z,24.15
2019-04-28T00:27:44.043Z,27.20
2019-04-28T00:30:15.122Z,21.25
2019-04-28T00:32:45.960Z,20.37
2019-04-28T00:35:16.920Z,23.15
2019-04-28T00:37:47.485Z,26.15
2019-04-28T00:40:18.634Z,23.07
2019-04-28T00:42:51.075Z,26.10
2019-04-28T00:45:21.595Z,24.12
2019-04-28T00:47:52.650Z,21.75
2019-04-28T00:50:23.484Z,24.20
2019-04-28T00:52:55.104Z,21.30
2019-04-28T00:55:25.728Z,24.32
2019-04-28T00:57:56.891Z,23.75
2019-04-28T01:00:31.034Z,25.43
2019-04-28T01:03:02.283Z,20.88
2019-04-28T01:05:33.447Z,22.98
2019-04-28T01:08:04.491Z,27.00
2019-04-28T01:10:35.161Z,25.70
2019-04-28T01:13:06.322Z,25.00
2019-04-28T01:15:41.867Z,28.10
2019-04-28T01:18:26.531Z,27.67
2019-04-28T01:20:57.388Z,25.05
2019-04-28T01:23:30.235Z,23.40
2019-04-28T01:26:01.041Z,29.27
2019-04-28T01:28:32.121Z,25.77
2019-04-28T01:31:13.512Z,23.70
2019-04-28T01:34:04.599Z,25.35
2019-04-28T01:36:37.194Z,31.65
2019-04-28T01:39:10.042Z,29.48
2019-04-28T01:41:41.669Z,26.45
2019-04-28T01:44:12.743Z,28.52
2019-04-28T01:46:43.805Z,27.90
2019-04-28T01:49:14.967Z,27.67
2019-04-28T01:51:50.257Z,28.98
2019-04-28T01:54:21.060Z,30.20
2019-04-28T01:56:52.122Z,28.07
2019-04-28T01:59:23.187Z,30.65
2019-04-28T02:01:54.259Z,21.20
2019-04-28T02:04:25.218Z,19.50
2019-04-28T02:06:56.074Z,19.48
2019-04-28T02:09:27.135Z,15.63
2019-04-28T02:11:58.213Z,15.32
2019-04-28T02:14:30.816Z,17.92
2019-04-28T02:17:01.645Z,16.87
2019-04-28T02:19:33.003Z,16.85
2019-04-28T02:22:05.591Z,18.73
2019-04-28T02:24:37.588Z,27.77
2019-04-28T02:27:10.412Z,18.80
2019-04-28T02:29:41.727Z,20.20
2019-04-28T02:32:13.311Z,17.35
2019-04-28T02:34:44.696Z,17.32
2019-04-28T02:37:15.344Z,21.20
2019-04-28T02:39:46.308Z,16.27
2019-04-28T02:42:20.632Z,17.73
2019-04-28T02:44:51.497Z,20.05
2019-04-28T02:47:22.569Z,18.35
2019-04-28T02:49:55.236Z,19.05
2019-04-28T02:52:30.983Z,20.08
2019-04-28T02:55:03.239Z,18.40
2019-04-28T02:57:34.367Z,20.30
2019-04-28T03:00:10.093Z,17.12
2019-04-28T03:02:41.456Z,18.62
2019-04-28T03:05:12.871Z,19.10
2019-04-28T03:07:43.521Z,16.82
2019-04-28T03:10:14.580Z,17.92
2019-04-28T03:12:45.640Z,19.82
2019-04-28T03:15:16.789Z,19.10
2019-04-28T03:17:52.442Z,16.02
2019-04-28T03:20:20.970Z,21.82
2019-04-28T03:22:52.731Z,16.73
2019-04-28T03:25:30.218Z,15.58
2019-04-28T03:28:02.135Z,18.10
2019-04-28T03:30:34.622Z,15.70
2019-04-28T03:33:16.995Z,13.08
2019-04-28T03:35:43.989Z,10.93
2019-04-28T03:38:12.201Z,11.97
2019-04-28T03:40:43.253Z,13.30
2019-04-28T03:43:15.153Z,11.05
2019-04-28T03:45:50.436Z,8.55
2019-04-28T03:48:21.350Z,11.35
2019-04-28T03:50:52.515Z,11.83
2019-04-28T03:53:23.461Z,11.18
2019-04-28T03:55:54.639Z,9.75
2019-04-28T03:58:25.183Z,7.37
2019-04-28T04:00:56.129Z,9.70
2019-04-28T04:03:27.085Z,12.82
2019-04-28T04:06:00.499Z,8.50
2019-04-28T04:08:31.144Z,9.98
2019-04-28T04:11:03.641Z,6.92
2019-04-28T04:13:52.835Z,9.30
2019-04-28T04:16:25.396Z,7.22
2019-04-28T04:19:00.505Z,8.53
2019-04-28T04:21:31.063Z,8.20
2019-04-28T04:24:02.060Z,6.30
2019-04-28T04:26:33.773Z,6.45
2019-04-28T04:29:04.693Z,12.18
2019-04-28T04:31:35.670Z,6.20
2019-04-28T04:34:06.627Z,7.62
2019-04-28T04:36:37.583Z,7.55
2019-04-28T04:39:10.810Z,6.62
2019-04-28T04:41:43.465Z,9.28
2019-04-28T04:44:13.200Z,9.58
2019-04-28T04:46:44.178Z,6.87
2019-04-28T04:49:15.020Z,10.63
2019-04-28T04:51:46.076Z,9.18
2019-04-28T04:54:17.054Z,10.53
2019-04-28T04:56:49.975Z,10.45
2019-04-28T04:59:20.377Z,11.00
2019-04-28T05:01:55.963Z,12.93
2019-04-28T05:04:31.522Z,11.88
2019-04-28T05:07:02.480Z,9.83
2019-04-28T05:09:33.336Z,11.28
2019-04-28T05:12:04.388Z,9.55
2019-04-28T05:14:35.357Z,12.35
2019-04-28T05:17:06.313Z,14.40
2019-04-28T05:19:37.273Z,12.47
2019-04-28T05:22:10.165Z,12.10
2019-04-28T05:24:46.292Z,13.98
2019-04-28T05:27:17.359Z,12.23
2019-04-28T05:29:46.917Z,12.33
2019-04-28T05:32:17.980Z,12.15
2019-04-28T05:34:50.661Z,12.75
2019-04-28T05:37:21.348Z,13.60
2019-04-28T05:39:52.699Z,14.58
2019-04-28T05:42:23.570Z,16.70
2019-04-28T05:44:54.816Z,12.60
2019-04-28T05:47:25.897Z,12.45
2019-04-28T05:50:04.525Z,11.85
2019-04-28T05:52:53.177Z,13.83
2019-04-28T05:55:39.357Z,13.48
2019-04-28T05:58:14.626Z,13.43
2019-04-28T06:01:03.487Z,12.10
2019-04-28T06:03:35.142Z,11.90
2019-04-28T06:06:06.012Z,13.85
2019-04-28T06:08:53.543Z,20.72
2019-04-28T06:11:31.862Z,14.93
2019-04-28T06:14:02.721Z,15.53
2019-04-28T06:16:33.881Z,16.27
2019-04-28T06:19:04.719Z,13.35
2019-04-28T06:21:35.491Z,25.40
2019-04-28T06:24:06.431Z,14.15
2019-04-28T06:26:37.289Z,21.60
2019-04-28T06:29:08.365Z,17.02
2019-04-28T06:31:39.324Z,19.05
2019-04-28T06:34:10.387Z,18.73
2019-04-28T06:36:41.346Z,15.58
2019-04-28T06:39:12.199Z,14.45
2019-04-28T06:41:43.258Z,16.35
2019-04-28T06:44:14.220Z,17.37
2019-04-28T06:46:45.484Z,13.75
2019-04-28T06:49:16.449Z,16.20
2019-04-28T06:51:47.503Z,17.12
2019-04-28T06:54:18.651Z,15.65
2019-04-28T06:56:49.724Z,15.68
2019-04-28T06:59:20.786Z,15.80
2019-04-28T07:01:51.847Z,19.65
2019-04-28T07:04:23.010Z,22.07
2019-04-28T07:06:53.954Z,19.65
2019-04-28T07:09:25.029Z,20.72
2019-04-28T07:11:55.986Z,19.48
2019-04-28T07:14:27.150Z,19.85
2019-04-28T07:16:58.093Z,22.48
2019-04-28T07:19:29.273Z,19.77
2019-04-28T07:22:11.379Z,19.87
2019-04-28T07:24:44.766Z,19.98
2019-04-28T07:27:14.612Z,25.05
2019-04-28T07:29:45.684Z,23.07
2019-04-28T07:32:16.556Z,23.42
2019-04-28T07:34:47.602Z,20.85
2019-04-28T07:37:18.867Z,22.77
2019-04-28T07:39:49.929Z,17.52
2019-04-28T07:42:20.767Z,21.45
2019-04-28T07:44:51.623Z,20.37
2019-04-28T07:47:23.723Z,22.15
2019-04-28T07:49:54.782Z,20.62
2019-04-28T07:52:27.277Z,24.60
2019-04-28T07:54:58.421Z,19.52
2019-04-28T07:57:29.498Z,18.30
2019-04-28T08:00:00.570Z,16.90
2019-04-28T08:02:31.505Z,18.65
2019-04-28T08:05:02.497Z,17.17
2019-04-28T08:07:33.539Z,19.85
2019-04-28T08:10:06.239Z,22.42
2019-04-28T08:12:36.969Z,19.90
2019-04-28T08:15:07.947Z,22.87
2019-04-28T08:17:39.007Z,15.60
2019-04-28T08:20:10.477Z,12.60
2019-04-28T08:22:41.417Z,16.80
2019-04-28T08:25:12.471Z,12.63
2019-04-28T08:27:43.435Z,11.83
2019-04-28T08:30:14.413Z,12.45
2019-04-28T08:32:55.786Z,11.83
2019-04-28T08:35:26.861Z,11.50
2019-04-28T08:37:57.699Z,10.23
2019-04-28T08:40:28.674Z,7.92
2019-04-28T08:42:59.619Z,10.08
2019-04-28T08:45:30.591Z,5.85
2019-04-28T08:48:02.061Z,9.30
2019-04-28T08:50:32.903Z,6.78
2019-04-28T08:53:03.861Z,6.78
2019-04-28T08:55:35.225Z,6.45
2019-04-28T08:58:05.894Z,6.58
2019-04-28T09:00:36.956Z,7.10
2019-04-28T09:03:07.915Z,6.60
2019-04-28T09:05:38.757Z,6.47
2019-04-28T09:08:09.830Z,6.42
2019-04-28T09:10:40.789Z,5.95
2019-04-28T09:13:11.790Z,7.62
2019-04-28T09:15:42.812Z,22.45
2019-04-28T09:18:13.543Z,6.90
2019-04-28T09:20:44.723Z,6.90
2019-04-28T09:23:15.567Z,7.53
2019-04-28T09:25:46.439Z,7.25
2019-04-28T09:28:17.499Z,7.47
2019-04-28T09:30:48.560Z,6.22
2019-04-28T09:33:19.622Z,8.88
2019-04-28T09:35:50.575Z,6.00
2019-04-28T09:38:21.742Z,24.12
2019-04-28T09:40:52.699Z,7.60
2019-04-28T09:43:25.070Z,5.45
2019-04-28T09:46:00.632Z,5.33
2019-04-28T09:48:32.528Z,15.80
2019-04-28T09:51:03.570Z,5.85
2019-04-28T09:53:34.650Z,6.05
2019-04-28T09:56:05.693Z,11.65
2019-04-28T09:58:36.651Z,6.87
2019-04-28T10:01:07.626Z,8.25
2019-04-28T10:03:38.686Z,5.83
2019-04-28T10:06:09.730Z,9.35
2019-04-28T10:08:40.707Z,21.75
2019-04-28T10:11:11.752Z,28.20
2019-04-28T10:13:42.604Z,8.70
2019-04-28T10:16:13.478Z,8.15
2019-04-28T10:18:44.132Z,11.95
2019-04-28T10:21:15.087Z,7.47
2019-04-28T10:23:45.945Z,5.83
2019-04-28T10:26:17.007Z,6.97
2019-04-28T10:28:47.845Z,6.22
2019-04-28T10:31:18.905Z,6.83
2019-04-28T10:33:51.396Z,6.55
2019-04-28T10:36:22.256Z,15.18
2019-04-28T10:38:54.867Z,10.65
2019-04-28T10:41:27.461Z,12.45
2019-04-28T10:43:58.521Z,7.83
2019-04-28T10:46:29.462Z,9.75
2019-04-28T10:49:00.221Z,5.10
2019-04-28T10:51:31.404Z,11.50
2019-04-28T10:54:01.929Z,9.20
2019-04-28T10:56:32.801Z,6.92
2019-04-28T10:59:04.272Z,6.42
2019-04-28T11:01:35.126Z,6.15
2019-04-28T11:04:10.381Z,5.15
2019-04-28T11:06:41.338Z,6.00
2019-04-28T11:09:32.038Z,5.60
2019-04-28T11:12:03.303Z,6.03
2019-04-28T11:14:34.261Z,9.80
2019-04-28T11:17:05.627Z,6.78
2019-04-28T11:19:36.178Z,5.45
2019-04-28T11:22:07.134Z,6.53
2019-04-28T11:24:38.196Z,6.40
2019-04-28T11:27:09.751Z,7.20
2019-04-28T11:29:40.523Z,11.30
2019-04-28T11:32:11.582Z,6.65
2019-04-28T11:34:49.700Z,13.50
2019-04-28T11:37:21.074Z,10.05
2019-04-28T11:39:51.620Z,11.43
2019-04-28T11:42:22.561Z,14.73
2019-04-28T11:44:53.636Z,12.68
2019-04-28T11:47:24.678Z,15.03
2019-04-28T11:49:55.658Z,11.00
2019-04-28T11:52:26.615Z,14.23
2019-04-28T11:54:57.454Z,18.90
2019-04-28T11:57:28.739Z,11.50
2019-04-28T11:59:59.374Z,12.98
2019-04-28T12:02:30.250Z,10.45
2019-04-28T12:05:01.389Z,10.88
2019-04-28T12:07:32.464Z,12.10
2019-04-28T12:10:07.907Z,10.23
2019-04-28T12:12:40.418Z,12.60
2019-04-28T12:15:16.284Z,8.88
2019-04-28T12:17:54.923Z,11.78
2019-04-28T12:20:27.001Z,15.95
2019-04-28T12:22:57.732Z,14.83
2019-04-28T12:25:28.813Z,11.03
2019-04-28T12:27:59.772Z,12.53
2019-04-28T12:30:30.830Z,12.28
2019-04-28T12:33:01.874Z,14.83
2019-04-28T12:35:33.053Z,13.75
2019-04-28T12:38:03.995Z,12.30
2019-04-28T12:40:34.968Z,9.38
2019-04-28T12:43:06.031Z,10.10
2019-04-28T12:45:36.995Z,10.28
2019-04-28T12:48:08.032Z,10.78
2019-04-28T12:50:46.577Z,12.50
2019-04-28T12:53:17.434Z,11.48
2019-04-28T12:55:48.374Z,13.38
2019-04-28T12:58:19.351Z,10.78
2019-04-28T13:01:08.203Z,7.20
2019-04-28T13:03:40.803Z,11.60
2019-04-28T13:06:18.899Z,9.58
2019-04-28T13:08:49.961Z,11.18
2019-04-28T13:11:20.919Z,14.25
2019-04-28T13:13:51.895Z,12.05
2019-04-28T13:16:22.734Z,9.65
2019-04-28T13:18:53.813Z,10.23
2019-04-28T13:21:24.755Z,11.38
2019-04-28T13:23:55.861Z,9.63
2019-04-28T13:26:26.898Z,10.85
2019-04-28T13:28:57.950Z,9.10
2019-04-28T13:31:28.910Z,9.83
2019-04-28T13:34:01.300Z,12.78
2019-04-28T13:36:32.070Z,18.65
2019-04-28T13:39:04.652Z,25.60
2019-04-28T13:41:37.365Z,10.88
2019-04-28T13:44:09.416Z,13.03
2019-04-28T13:46:40.388Z,11.50
2019-04-28T13:49:12.887Z,11.05
2019-04-28T13:51:43.823Z,12.82
2019-04-28T13:54:16.314Z,9.30
2019-04-28T13:56:47.391Z,10.60
2019-04-28T13:59:19.885Z,10.98
2019-04-28T14:01:52.379Z,11.53
2019-04-28T14:04:31.161Z,10.55
2019-04-28T14:07:02.072Z,10.82
2019-04-28T14:09:33.070Z,10.75
2019-04-28T14:12:04.194Z,11.28
2019-04-28T14:14:35.233Z,15.75
2019-04-28T14:17:06.208Z,11.70
2019-04-28T14:19:37.369Z,13.93
2019-04-28T14:22:08.381Z,13.75
2019-04-28T14:24:39.285Z,15.90
2019-04-28T14:27:10.350Z,11.85
2019-04-28T14:29:41.186Z,10.50
2019-04-28T14:32:12.289Z,11.15
2019-04-28T14:34:43.223Z,15.38
2019-04-28T14:37:14.293Z,13.93
2019-04-28T14:39:45.225Z,10.60
2019-04-28T14:42:16.100Z,11.53
2019-04-28T14:44:47.039Z,13.40
2019-04-28T14:47:18.016Z,12.30
2019-04-28T14:49:49.224Z,15.20
2019-04-28T14:52:20.252Z,16.45
2019-04-28T14:54:51.303Z,16.75
2019-04-28T14:57:22.137Z,15.83
2019-04-28T14:59:53.114Z,17.00
2019-04-28T15:02:42.315Z,17.40
2019-04-28T15:05:21.401Z,16.55
2019-04-28T15:08:12.423Z,13.85
2019-04-28T15:11:03.092Z,13.80
2019-04-28T15:13:34.180Z,12.07
2019-04-28T15:16:05.183Z,10.60
2019-04-28T15:18:36.136Z,11.88
2019-04-28T15:21:07.172Z,13.83
2019-04-28T15:23:38.116Z,12.65
2019-04-28T15:26:09.183Z,18.07
2019-04-28T15:28:40.136Z,11.28
2019-04-28T15:31:10.973Z,17.10
2019-04-28T15:33:42.051Z,17.12
2019-04-28T15:36:13.014Z,19.35
2019-04-28T15:38:44.071Z,15.75
2019-04-28T15:41:21.961Z,14.40
2019-04-28T15:43:47.305Z,13.43
2019-04-28T15:46:18.257Z,15.00
2019-04-28T15:48:49.115Z,17.23
2019-04-28T15:51:21.112Z,14.07
2019-04-28T15:53:51.765Z,15.32
2019-04-28T15:56:27.104Z,16.40
2019-04-28T15:58:58.067Z,21.45
2019-04-28T16:01:28.943Z,15.90
2019-04-28T16:03:59.998Z,20.30
2019-04-28T16:06:31.039Z,23.60
2019-04-28T16:09:02.116Z,18.37
2019-04-28T16:11:41.148Z,22.67
2019-04-28T16:14:11.810Z,23.35
2019-04-28T16:16:43.787Z,31.48
2019-04-28T16:19:14.744Z,25.23
2019-04-28T16:21:45.706Z,29.67
2019-04-28T16:24:17.278Z,28.17
2019-04-28T16:26:48.349Z,25.10
2019-04-28T16:29:19.398Z,25.20
2019-04-28T16:31:49.928Z,25.40
2019-04-28T16:34:20.782Z,23.07
2019-04-28T16:36:51.741Z,24.98
2019-04-28T16:39:22.598Z,24.67
2019-04-28T16:41:54.332Z,27.60
2019-04-28T16:44:25.351Z,24.77
2019-04-28T16:46:56.293Z,34.05
2019-04-28T16:49:27.270Z,24.70
2019-04-28T16:51:58.210Z,28.23
2019-04-28T16:54:29.185Z,27.20
2019-04-28T16:57:07.609Z,23.45
2019-04-28T16:59:52.158Z,31.52
2019-04-28T17:02:33.635Z,29.48
2019-04-28T17:05:05.748Z,28.73
2019-04-28T17:07:36.813Z,29.95
2019-04-28T17:10:07.953Z,31.35
2019-04-28T17:12:38.658Z,35.23
2019-04-28T17:15:09.984Z,32.95
2019-04-28T17:17:40.537Z,28.73
2019-04-28T17:20:11.746Z,61.08
2019-04-28T17:22:42.340Z,73.28
2019-04-28T17:25:13.601Z,69.62
2019-04-28T17:27:44.781Z,47.53
2019-04-28T17:30:17.154Z,40.95
2019-04-28T17:32:48.027Z,52.90
2019-04-28T17:35:18.968Z,35.45
2019-04-28T17:37:50.051Z,32.05
2019-04-28T17:40:22.521Z,30.50
2019-04-28T17:42:53.600Z,26.55
2019-04-28T17:45:24.561Z,30.52
2019-04-28T17:47:57.153Z,28.20
2019-04-28T17:50:28.521Z,31.25
2019-04-28T17:52:59.253Z,29.50
2019-04-28T17:55:30.113Z,33.25
2019-04-28T17:58:00.978Z,30.60
2019-04-28T18:00:40.028Z,30.55
2019-04-28T18:03:28.863Z,30.75
2019-04-28T18:06:01.270Z,28.85
2019-04-28T18:08:33.353Z,31.60
2019-04-28T18:11:04.006Z,47.27
2019-04-28T18:13:34.964Z,36.28
2019-04-28T18:16:23.598Z,33.13
2019-04-28T18:19:14.315Z,36.60
2019-04-28T18:21:45.448Z,35.48
2019-04-28T18:24:16.539Z,32.65
2019-04-28T18:26:47.598Z,30.92
2019-04-28T18:29:18.440Z,28.40
2019-04-28T18:32:00.151Z,22.20
2019-04-28T18:34:32.746Z,22.07
2019-04-28T18:37:17.411Z,23.42
2019-04-28T18:40:04.731Z,21.75
2019-04-28T18:42:55.739Z,21.10
2019-04-28T18:45:26.692Z,21.73
2019-04-28T18:47:57.961Z,17.67
2019-04-28T18:50:28.800Z,21.68
2019-04-28T18:52:59.655Z,21.52
2019-04-28T18:55:30.610Z,19.52
2019-04-28T18:58:01.588Z,21.90
2019-04-28T19:00:34.181Z,17.15
2019-04-28T19:03:05.226Z,24.20
2019-04-28T19:05:37.666Z,26.23
2019-04-28T19:08:12.889Z,25.43
2019-04-28T19:10:45.471Z,29.80
2019-04-28T19:13:20.841Z,25.30
2019-04-28T19:15:53.432Z,26.93
2019-04-28T19:18:27.156Z,26.68
2019-04-28T19:20:57.989Z,27.50
2019-04-28T19:23:29.068Z,28.55
2019-04-28T19:26:00.489Z,26.65
2019-04-28T19:28:31.172Z,25.35
2019-04-28T19:31:02.252Z,29.32
2019-04-28T19:33:33.212Z,67.30
2019-04-28T19:36:04.151Z,143.37
2019-04-28T19:38:35.231Z,199.55
2019-04-28T19:41:06.188Z,94.13
2019-04-28T19:43:37.149Z,92.10
2019-04-28T19:46:09.641Z,219.25
2019-04-28T19:48:40.699Z,126.55
2019-04-28T19:51:11.657Z,95.97
2019-04-28T19:53:42.721Z,159.32
2019-04-28T19:56:27.365Z,134.40
2019-04-28T19:59:15.092Z,71.62
2019-04-28T20:01:46.377Z,45.80
2019-04-28T20:04:17.186Z,32.58
2019-04-28T20:06:48.183Z,27.15
2019-04-28T20:09:19.031Z,32.00
2019-04-28T20:11:50.005Z,31.52
2019-04-28T20:14:20.945Z,20.27
2019-04-28T20:16:51.922Z,22.07
2019-04-28T20:19:22.777Z,29.45
2019-04-28T20:21:53.841Z,22.10
2019-04-28T20:24:24.796Z,26.10
2019-04-28T20:26:55.740Z,22.52
2019-04-28T20:29:26.712Z,19.17
2019-04-28T20:31:57.571Z,23.47
2019-04-28T20:34:28.512Z,22.02
2019-04-28T20:37:13.174Z,24.47
2019-04-28T20:39:45.584Z,18.55
2019-04-28T20:42:34.749Z,19.35
2019-04-28T20:45:08.637Z,27.60
2019-04-28T20:47:39.733Z,20.32
2019-04-28T20:50:10.977Z,27.45
2019-04-28T20:52:41.631Z,19.20
2019-04-28T20:55:12.708Z,19.00
2019-04-28T20:57:43.649Z,27.22
2019-04-28T21:00:14.813Z,16.80
2019-04-28T21:02:45.889Z,14.23
2019-04-28T21:05:16.947Z,17.87
2019-04-28T21:07:47.807Z,12.60
2019-04-28T21:10:18.869Z,14.05
2019-04-28T21:12:49.399Z,15.38
2019-04-28T21:15:20.256Z,10.85
2019-04-28T21:17:51.331Z,11.60
2019-04-28T21:20:22.292Z,11.18
2019-04-28T21:22:53.351Z,16.65
2019-04-28T21:25:24.308Z,13.50
2019-04-28T21:27:55.168Z,11.50
2019-04-28T21:30:26.110Z,15.40
2019-04-28T21:32:57.063Z,12.93
2019-04-28T21:35:28.025Z,13.65
2019-04-28T21:37:59.003Z,11.68
2019-04-28T21:40:30.145Z,13.10
2019-04-28T21:43:05.212Z,13.45
2019-04-28T21:45:54.067Z,13.78
2019-04-28T21:48:38.834Z,10.70
2019-04-28T21:51:11.904Z,10.70
2019-04-28T21:53:43.103Z,11.25
2019-04-28T21:56:14.161Z,13.62
2019-04-28T21:58:45.002Z,12.58
2019-04-28T22:01:19.433Z,9.90
2019-04-28T22:03:50.515Z,12.30
2019-04-28T22:06:21.779Z,11.15
2019-04-28T22:08:52.741Z,12.73
2019-04-28T22:11:23.798Z,12.43
2019-04-28T22:13:54.637Z,12.25
2019-04-28T22:16:25.610Z,9.98
2019-04-28T22:18:56.775Z,12.45
2019-04-28T22:21:27.734Z,13.30
2019-04-28T22:24:00.316Z,10.68
2019-04-28T22:26:47.942Z,13.13
2019-04-28T22:29:18.985Z,15.13
2019-04-28T22:31:49.976Z,20.68
2019-04-28T22:34:20.817Z,12.65
2019-04-28T22:36:51.893Z,11.35
2019-04-28T22:39:22.850Z,13.25
2019-04-28T22:41:53.695Z,11.45
2019-04-28T22:44:24.651Z,13.35
2019-04-28T22:46:55.623Z,11.68
2019-04-28T22:49:27.076Z,9.40
2019-04-28T22:51:57.832Z,11.83
2019-04-28T22:54:30.527Z,10.95
2019-04-28T22:57:03.037Z,15.00
2019-04-28T22:59:35.529Z,9.53
2019-04-28T23:02:10.767Z,11.45
2019-04-28T23:04:43.260Z,10.25
2019-04-28T23:07:14.644Z,12.10
2019-04-28T23:09:45.604Z,9.53
2019-04-28T23:12:16.663Z,11.22
2019-04-28T23:14:47.622Z,9.40
2019-04-28T23:17:20.217Z,10.90
2019-04-28T23:19:50.969Z,10.90
2019-04-28T23:22:23.443Z,10.10
2019-04-28T23:24:54.523Z,12.25
2019-04-28T23:27:25.362Z,11.68
2019-04-28T23:29:56.234Z,9.75
2019-04-28T23:32:27.372Z,12.35
2019-04-28T23:34:58.441Z,14.00
2019-04-28T23:37:29.400Z,13.50
2019-04-28T23:40:00.475Z,9.58
2019-04-28T23:42:41.972Z,13.03
2019-04-28T23:45:13.114Z,10.98
2019-04-28T23:47:43.768Z,11.12
2019-04-28T23:50:16.370Z,11.80
2019-04-28T23:52:51.941Z,12.03
2019-04-28T23:55:23.002Z,12.15
2019-04-28T23:57:53.859Z,7.97
